createdAt,value
2022-12-08T00:01:22.752Z,22.80
2022-12-08T00:03:50.359Z,22.20
2022-12-08T00:06:55.539Z,22.00
2022-12-08T00:09:27.334Z,21.70
2022-12-08T00:12:05.105Z,21.40
2022-12-08T00:14:34.649Z,21.00
2022-12-08T00:17:03.309Z,21.30
2022-12-08T00:19:31.063Z,21.50
2022-12-08T00:21:58.625Z,21.50
2022-12-08T00:24:31.885Z,21.70
2022-12-08T00:26:58.757Z,21.90
2022-12-08T00:29:25.628Z,22.80
2022-12-08T00:31:52.811Z,23.30
2022-12-08T00:34:20.399Z,23.20
2022-12-08T00:36:47.506Z,23.30
2022-12-08T00:39:16.428Z,23.50
2022-12-08T00:42:01.880Z,23.10
2022-12-08T00:44:28.889Z,23.50
2022-12-08T00:46:55.849Z,23.10
2022-12-08T00:49:23.190Z,22.30
2022-12-08T00:51:50.246Z,22.20
2022-12-08T00:54:17.461Z,22.30
2022-12-08T00:56:44.329Z,22.20
2022-12-08T00:59:11.223Z,22.00
2022-12-08T01:01:38.324Z,22.00
2022-12-08T01:04:10.487Z,21.50
2022-12-08T01:06:37.902Z,21.60
2022-12-08T01:09:06.518Z,21.90
2022-12-08T01:11:34.457Z,22.20
2022-12-08T01:14:01.482Z,22.20
2022-12-08T01:16:31.577Z,21.90
2022-12-08T01:18:59.566Z,21.70
2022-12-08T01:21:26.997Z,21.50
2022-12-08T01:23:54.530Z,21.70
2022-12-08T01:26:21.893Z,21.40
2022-12-08T01:28:48.860Z,21.30
2022-12-08T01:31:17.921Z,21.00
2022-12-08T01:33:45.174Z,20.60
2022-12-08T01:36:26.691Z,20.30
2022-12-08T01:38:54.973Z,20.00
2022-12-08T01:41:24.376Z,20.00
2022-12-08T01:44:08.857Z,19.90
2022-12-08T01:46:38.309Z,19.90
2022-12-08T01:49:08.246Z,20.10
2022-12-08T01:52:00.566Z,20.00
2022-12-08T01:54:32.281Z,20.20
2022-12-08T01:57:03.640Z,20.50
2022-12-08T01:59:33.151Z,20.70
2022-12-08T02:02:00.039Z,21.40
2022-12-08T02:04:26.898Z,22.20
2022-12-08T02:06:54.739Z,22.00
2022-12-08T02:09:21.940Z,22.50
2022-12-08T02:11:50.248Z,22.40
2022-12-08T02:14:17.275Z,22.20
2022-12-08T02:17:11.928Z,22.50
2022-12-08T02:20:00.029Z,22.00
2022-12-08T02:22:49.642Z,22.20
2022-12-08T02:25:28.245Z,22.50
2022-12-08T02:28:23.088Z,23.00
2022-12-08T02:31:14.362Z,23.20
2022-12-08T02:33:46.818Z,23.10
2022-12-08T02:36:24.703Z,23.10
2022-12-08T02:39:08.911Z,23.50
2022-12-08T02:41:49.320Z,23.60
2022-12-08T02:44:47.744Z,23.40
2022-12-08T02:47:17.946Z,23.20
2022-12-08T02:49:45.013Z,23.00
2022-12-08T02:52:14.828Z,22.60
2022-12-08T02:54:51.643Z,22.50
2022-12-08T02:57:32.488Z,22.20
2022-12-08T03:00:10.600Z,22.00
2022-12-08T03:02:52.491Z,22.60
2022-12-08T03:05:19.443Z,22.70
2022-12-08T03:08:08.107Z,22.60
2022-12-08T03:10:40.389Z,22.70
2022-12-08T03:13:14.401Z,22.80
2022-12-08T03:15:43.393Z,22.80
2022-12-08T03:18:13.726Z,22.60
2022-12-08T03:20:42.545Z,23.10
2022-12-08T03:23:13.286Z,22.60
2022-12-08T03:25:46.931Z,22.80
2022-12-08T03:28:14.140Z,22.70
2022-12-08T03:30:43.314Z,22.50
2022-12-08T03:33:20.507Z,22.70
2022-12-08T03:35:47.856Z,23.10
2022-12-08T03:38:16.477Z,23.70
2022-12-08T03:40:44.287Z,24.50
2022-12-08T03:43:11.168Z,24.10
2022-12-08T03:45:38.006Z,25.00
2022-12-08T03:48:05.017Z,24.80
2022-12-08T03:50:31.848Z,24.80
2022-12-08T03:52:58.681Z,24.30
2022-12-08T03:55:25.598Z,23.70
2022-12-08T03:57:52.438Z,23.00
2022-12-08T04:00:19.440Z,22.70
2022-12-08T04:02:46.447Z,22.30
2022-12-08T04:05:13.474Z,22.30
2022-12-08T04:07:40.467Z,22.00
2022-12-08T04:10:08.123Z,21.70
2022-12-08T04:12:35.111Z,21.60
2022-12-08T04:15:02.012Z,21.30
2022-12-08T04:17:28.913Z,21.30
2022-12-08T04:19:55.815Z,21.10
2022-12-08T04:22:22.707Z,20.90
2022-12-08T04:24:49.710Z,20.80
2022-12-08T04:27:16.609Z,20.90
2022-12-08T04:29:43.519Z,20.80
2022-12-08T04:32:10.509Z,20.90
2022-12-08T04:34:37.378Z,21.20
2022-12-08T04:37:04.248Z,21.10
2022-12-08T04:39:31.098Z,21.50
2022-12-08T04:41:57.946Z,22.30
2022-12-08T04:44:24.812Z,23.10
2022-12-08T04:46:51.764Z,23.70
2022-12-08T04:49:18.702Z,23.60
2022-12-08T04:51:45.560Z,23.20
2022-12-08T04:54:12.492Z,22.70
2022-12-08T04:56:39.401Z,22.50
2022-12-08T04:59:06.353Z,22.00
2022-12-08T05:01:33.478Z,21.90
2022-12-08T05:04:00.405Z,21.80
2022-12-08T05:06:27.295Z,21.60
2022-12-08T05:08:54.208Z,21.60
2022-12-08T05:11:21.054Z,21.90
2022-12-08T05:13:48.287Z,22.00
2022-12-08T05:16:16.350Z,22.30
2022-12-08T05:18:43.521Z,22.10
2022-12-08T05:21:11.475Z,21.70
2022-12-08T05:23:38.428Z,21.50
2022-12-08T05:26:05.513Z,21.30
2022-12-08T05:28:41.396Z,21.20
2022-12-08T05:31:09.358Z,21.40
2022-12-08T05:33:36.383Z,21.00
2022-12-08T05:36:03.348Z,20.80
2022-12-08T05:38:30.270Z,20.90
2022-12-08T05:40:57.153Z,20.60
2022-12-08T05:43:24.314Z,20.30
2022-12-08T05:45:51.296Z,20.30
2022-12-08T05:48:18.203Z,20.10
2022-12-08T05:50:49.280Z,20.30
2022-12-08T05:53:20.528Z,20.30
2022-12-08T05:55:47.751Z,20.50
2022-12-08T05:58:17.353Z,20.80
2022-12-08T06:00:45.347Z,21.00
2022-12-08T06:03:12.878Z,21.10
2022-12-08T06:05:42.008Z,21.20
2022-12-08T06:08:09.979Z,21.20
2022-12-08T06:10:38.932Z,21.10
2022-12-08T06:13:05.885Z,21.20
2022-12-08T06:15:38.081Z,21.40
2022-12-08T06:18:05.798Z,21.60
2022-12-08T06:20:33.169Z,21.50
2022-12-08T06:23:00.058Z,21.40
2022-12-08T06:25:27.116Z,21.50
2022-12-08T06:27:54.037Z,21.40
2022-12-08T06:30:20.906Z,21.30
2022-12-08T06:32:47.811Z,21.10
2022-12-08T06:35:14.692Z,21.90
2022-12-08T06:37:41.593Z,21.70
2022-12-08T06:40:09.128Z,21.40
2022-12-08T06:42:44.927Z,21.30
2022-12-08T06:45:14.442Z,20.90
2022-12-08T06:47:41.660Z,20.80
2022-12-08T06:50:10.107Z,20.80
2022-12-08T06:52:45.638Z,20.90
2022-12-08T06:55:35.468Z,20.90
2022-12-08T06:58:03.446Z,21.10
2022-12-08T07:00:30.410Z,21.00
2022-12-08T07:02:57.367Z,21.70
2022-12-08T07:05:24.477Z,21.90
2022-12-08T07:07:51.372Z,22.00
2022-12-08T07:10:18.391Z,22.30
2022-12-08T07:12:45.636Z,22.30
2022-12-08T07:15:12.602Z,21.70
2022-12-08T07:17:39.448Z,21.30
2022-12-08T07:20:07.369Z,20.90
2022-12-08T07:22:34.456Z,20.70
2022-12-08T07:25:01.555Z,20.30
2022-12-08T07:27:28.794Z,20.00
2022-12-08T07:29:55.627Z,20.00
2022-12-08T07:32:22.623Z,20.10
2022-12-08T07:34:49.615Z,20.00
2022-12-08T07:37:16.564Z,19.90
2022-12-08T07:39:43.514Z,19.60
2022-12-08T07:42:10.381Z,19.60
2022-12-08T07:44:37.264Z,19.50
2022-12-08T07:47:04.266Z,19.50
2022-12-08T07:49:31.215Z,19.50
2022-12-08T07:51:58.064Z,19.40
2022-12-08T07:54:25.015Z,19.40
2022-12-08T07:56:51.861Z,19.40
2022-12-08T07:59:19.241Z,19.60
2022-12-08T08:01:52.787Z,19.60
2022-12-08T08:04:33.385Z,19.60
2022-12-08T08:07:00.303Z,19.50
2022-12-08T08:09:27.182Z,19.60
2022-12-08T08:12:22.178Z,19.70
2022-12-08T08:14:40.942Z,19.70
2022-12-08T08:17:08.095Z,19.70
2022-12-08T08:19:35.097Z,19.90
2022-12-08T08:22:02.263Z,20.00
2022-12-08T08:24:29.289Z,20.10
2022-12-08T08:26:56.203Z,20.30
2022-12-08T08:29:23.156Z,20.10
2022-12-08T08:31:50.465Z,20.10
2022-12-08T08:34:17.665Z,20.60
2022-12-08T08:36:44.751Z,20.60
2022-12-08T08:39:12.634Z,20.70
2022-12-08T08:41:39.817Z,20.90
2022-12-08T08:44:06.762Z,20.60
2022-12-08T08:46:33.801Z,20.50
2022-12-08T08:49:01.130Z,20.30
2022-12-08T08:51:28.009Z,20.10
2022-12-08T08:53:54.910Z,20.10
2022-12-08T08:56:21.836Z,19.80
2022-12-08T08:58:50.626Z,19.70
2022-12-08T09:01:20.866Z,19.70
2022-12-08T09:03:48.583Z,19.70
2022-12-08T09:06:16.582Z,19.70
2022-12-08T09:08:44.425Z,19.80
2022-12-08T09:11:11.969Z,19.80
2022-12-08T09:13:39.117Z,19.70
2022-12-08T09:16:08.591Z,19.90
2022-12-08T09:18:35.593Z,19.90
2022-12-08T09:21:06.960Z,20.00
2022-12-08T09:23:35.763Z,20.20
2022-12-08T09:26:05.099Z,20.10
2022-12-08T09:28:32.996Z,20.90
2022-12-08T09:31:00.043Z,20.90
2022-12-08T09:33:27.099Z,20.90
2022-12-08T09:35:54.016Z,20.80
2022-12-08T09:38:20.936Z,21.30
2022-12-08T09:40:51.980Z,21.60
2022-12-08T09:43:37.322Z,21.70
2022-12-08T09:46:11.534Z,21.60
2022-12-08T09:48:48.014Z,21.50
2022-12-08T09:51:16.779Z,21.50
2022-12-08T09:53:51.128Z,21.50
2022-12-08T09:56:30.782Z,21.80
2022-12-08T09:59:01.912Z,22.00
2022-12-08T10:01:33.228Z,22.10
2022-12-08T10:04:01.434Z,22.00
2022-12-08T10:06:31.891Z,21.90
2022-12-08T10:09:33.786Z,21.70
2022-12-08T10:12:09.647Z,22.00
2022-12-08T10:14:59.788Z,21.80
2022-12-08T10:17:38.139Z,22.30
2022-12-08T10:20:19.024Z,22.40
2022-12-08T10:23:11.699Z,22.10
2022-12-08T10:25:44.997Z,21.90
2022-12-08T10:28:12.559Z,22.10
2022-12-08T10:30:39.877Z,22.20
2022-12-08T10:33:15.709Z,22.10
2022-12-08T10:35:58.533Z,22.10
2022-12-08T10:38:34.309Z,21.90
2022-12-08T10:41:10.603Z,21.60
2022-12-08T10:43:43.870Z,21.70
2022-12-08T10:46:17.189Z,21.60
2022-12-08T10:48:55.268Z,21.50
2022-12-08T10:51:36.500Z,21.40
2022-12-08T10:54:06.146Z,21.30
2022-12-08T10:56:33.606Z,21.40
2022-12-08T10:59:14.924Z,21.90
2022-12-08T11:01:42.875Z,21.80
2022-12-08T11:04:34.286Z,21.70
2022-12-08T11:07:01.573Z,22.00
2022-12-08T11:09:37.044Z,21.80
2022-12-08T11:12:09.973Z,22.00
2022-12-08T11:14:42.842Z,22.50
2022-12-08T11:17:17.460Z,22.50
2022-12-08T11:19:55.272Z,22.30
2022-12-08T11:22:33.703Z,22.30
2022-12-08T11:25:12.685Z,22.30
2022-12-08T11:27:44.412Z,22.70
2022-12-08T11:30:29.352Z,23.00
2022-12-08T11:33:13.697Z,22.80
2022-12-08T11:35:44.107Z,22.60
2022-12-08T11:38:23.633Z,23.00
2022-12-08T11:41:16.823Z,23.00
2022-12-08T11:44:05.563Z,22.80
2022-12-08T11:46:48.896Z,23.20
2022-12-08T11:49:15.939Z,23.20
2022-12-08T11:52:05.463Z,23.40
2022-12-08T11:55:25.753Z,23.30
2022-12-08T11:57:54.972Z,23.10
2022-12-08T12:00:21.969Z,22.80
2022-12-08T12:03:03.809Z,22.50
2022-12-08T12:06:13.683Z,22.50
2022-12-08T12:09:11.444Z,22.00
2022-12-08T12:12:16.854Z,21.80
2022-12-08T12:15:28.169Z,21.70
2022-12-08T12:18:14.838Z,22.10
2022-12-08T12:21:09.874Z,22.40
2022-12-08T12:23:42.140Z,22.80
2022-12-08T12:26:17.582Z,22.50
2022-12-08T12:29:13.169Z,22.20
2022-12-08T12:31:47.338Z,21.90
2022-12-08T12:34:30.682Z,21.70
2022-12-08T12:37:10.412Z,21.70
2022-12-08T12:39:58.720Z,21.80
2022-12-08T12:42:40.367Z,21.80
2022-12-08T12:45:17.276Z,21.90
2022-12-08T12:47:56.981Z,21.70
2022-12-08T12:50:49.979Z,21.60
2022-12-08T12:53:16.881Z,21.50
2022-12-08T12:55:52.723Z,21.50
2022-12-08T12:58:27.433Z,21.40
2022-12-08T13:01:15.193Z,21.40
2022-12-08T13:03:46.171Z,21.70
2022-12-08T13:06:23.300Z,21.90
2022-12-08T13:08:56.357Z,22.30
2022-12-08T13:11:24.608Z,22.50
2022-12-08T13:14:01.442Z,22.70
2022-12-08T13:16:33.046Z,23.10
2022-12-08T13:19:03.665Z,23.00
2022-12-08T13:21:36.863Z,23.00
2022-12-08T13:24:30.284Z,23.20
2022-12-08T13:27:06.326Z,23.10
2022-12-08T13:29:35.013Z,23.00
2022-12-08T13:33:16.180Z,23.00
2022-12-08T13:35:28.430Z,23.30
2022-12-08T13:37:55.997Z,23.50
2022-12-08T13:40:30.357Z,23.10
2022-12-08T13:43:15.220Z,22.80
2022-12-08T13:46:52.884Z,22.20
2022-12-08T13:50:15.585Z,21.70
2022-12-08T13:55:58.677Z,21.00
2022-12-08T13:57:34.423Z,20.90
2022-12-08T14:00:08.076Z,20.60
2022-12-08T14:02:45.294Z,20.60
2022-12-08T14:05:19.458Z,20.40
2022-12-08T14:07:49.929Z,20.40
2022-12-08T14:10:29.380Z,20.20
2022-12-08T14:13:02.736Z,20.40
2022-12-08T14:15:37.805Z,20.40
2022-12-08T14:18:06.116Z,20.40
2022-12-08T14:20:57.799Z,20.40
2022-12-08T14:23:22.385Z,20.70
2022-12-08T14:25:49.674Z,20.60
2022-12-08T14:28:17.170Z,20.50
2022-12-08T14:30:44.608Z,20.50
2022-12-08T14:33:19.268Z,20.30
2022-12-08T14:35:55.132Z,20.40
2022-12-08T14:38:24.763Z,20.50
2022-12-08T14:41:09.179Z,20.40
2022-12-08T14:43:36.528Z,20.30
2022-12-08T14:46:18.674Z,20.40
2022-12-08T14:48:45.732Z,20.40
2022-12-08T14:51:21.697Z,20.40
2022-12-08T14:54:06.670Z,20.40
2022-12-08T14:56:38.254Z,20.30
2022-12-08T14:59:15.905Z,20.30
2022-12-08T15:01:44.082Z,20.30
2022-12-08T15:04:14.567Z,20.30
2022-12-08T15:06:54.502Z,20.30
2022-12-08T15:09:42.890Z,20.30
2022-12-08T15:12:12.533Z,20.30
2022-12-08T15:14:54.346Z,20.20
2022-12-08T15:18:17.049Z,20.20
2022-12-08T15:20:51.601Z,20.20
2022-12-08T15:23:18.430Z,20.40
2022-12-08T15:25:45.548Z,20.40
2022-12-08T15:28:18.672Z,20.40
2022-12-08T15:30:46.092Z,20.40
2022-12-08T15:33:13.399Z,20.40
2022-12-08T15:35:41.070Z,20.40
2022-12-08T15:38:24.819Z,20.50
2022-12-08T15:40:53.381Z,20.40
2022-12-08T15:43:21.055Z,20.30
2022-12-08T15:45:58.348Z,20.30
2022-12-08T15:48:28.492Z,20.20
2022-12-08T15:50:56.422Z,20.50
2022-12-08T15:53:23.757Z,20.50
2022-12-08T15:56:25.553Z,20.40
2022-12-08T15:58:55.592Z,20.30
2022-12-08T16:01:23.908Z,20.20
2022-12-08T16:09:38.827Z,20.00
2022-12-08T16:13:48.187Z,20.30
2022-12-08T16:15:51.646Z,20.50
2022-12-08T16:18:27.984Z,20.60
2022-12-08T16:23:43.668Z,20.50
2022-12-08T16:29:06.457Z,20.20
2022-12-08T16:31:34.112Z,20.20
2022-12-08T16:34:01.219Z,20.30
2022-12-08T16:36:28.119Z,20.50
2022-12-08T16:38:55.077Z,20.70
2022-12-08T16:41:40.750Z,20.80
2022-12-08T16:44:07.702Z,20.90
2022-12-08T16:46:36.028Z,20.90
2022-12-08T16:49:03.607Z,20.90
2022-12-08T16:51:30.544Z,20.80
2022-12-08T16:53:58.494Z,20.90
2022-12-08T16:56:32.535Z,20.80
2022-12-08T16:58:59.892Z,20.70
2022-12-08T17:01:26.907Z,20.80
2022-12-08T17:04:29.307Z,21.20
2022-12-08T17:06:40.946Z,21.20
2022-12-08T17:09:07.983Z,21.10
2022-12-08T17:11:40.759Z,21.00
2022-12-08T17:14:09.886Z,21.60
2022-12-08T17:16:36.885Z,20.90
2022-12-08T17:19:03.811Z,20.90
2022-12-08T17:21:30.756Z,20.80
2022-12-08T17:23:57.824Z,20.70
2022-12-08T17:26:24.842Z,20.60
2022-12-08T17:29:00.652Z,20.40
2022-12-08T17:31:30.819Z,20.30
2022-12-08T17:34:03.026Z,20.20
2022-12-08T17:36:30.449Z,20.10
2022-12-08T17:38:59.603Z,20.00
2022-12-08T17:41:26.921Z,20.00
2022-12-08T17:43:53.949Z,20.10
2022-12-08T17:46:21.774Z,20.00
2022-12-08T17:48:48.882Z,19.90
2022-12-08T17:51:16.650Z,19.90
2022-12-08T17:53:44.400Z,19.80
2022-12-08T17:56:17.471Z,19.90
2022-12-08T17:58:45.620Z,19.90
2022-12-08T18:01:14.556Z,20.00
2022-12-08T18:03:41.594Z,20.00
2022-12-08T18:06:10.873Z,20.10
2022-12-08T18:08:38.921Z,20.00
2022-12-08T18:11:11.254Z,20.10
2022-12-08T18:13:38.107Z,20.00
2022-12-08T18:16:05.162Z,19.90
2022-12-08T18:18:32.127Z,19.80
2022-12-08T18:20:59.016Z,19.80
2022-12-08T18:23:26.526Z,19.70
2022-12-08T18:25:53.852Z,19.70
2022-12-08T18:28:20.820Z,19.70
2022-12-08T18:30:47.776Z,19.70
2022-12-08T18:33:14.727Z,19.80
2022-12-08T18:35:41.824Z,19.80
2022-12-08T18:38:08.731Z,19.70
2022-12-08T18:40:35.771Z,19.60
2022-12-08T18:43:02.719Z,19.80
2022-12-08T18:45:30.750Z,20.00
2022-12-08T18:47:57.766Z,20.10
2022-12-08T18:50:24.661Z,20.00
2022-12-08T18:52:51.713Z,19.90
2022-12-08T18:55:18.723Z,19.80
2022-12-08T18:57:45.856Z,19.70
2022-12-08T19:00:15.637Z,19.70
2022-12-08T19:02:43.093Z,19.40
2022-12-08T19:05:12.440Z,19.30
2022-12-08T19:07:39.756Z,19.30
2022-12-08T19:10:07.647Z,19.20
2022-12-08T19:12:34.831Z,19.10
2022-12-08T19:15:01.777Z,19.10
2022-12-08T19:17:29.966Z,18.90
2022-12-08T19:19:57.727Z,18.80
2022-12-08T19:22:24.623Z,18.90
2022-12-08T19:24:51.554Z,18.80
2022-12-08T19:27:18.889Z,18.90
2022-12-08T19:29:45.802Z,18.90
2022-12-08T19:32:12.692Z,18.90
2022-12-08T19:34:39.673Z,19.00
2022-12-08T19:37:06.982Z,18.80
2022-12-08T19:39:52.294Z,18.60
2022-12-08T19:42:39.171Z,18.80
2022-12-08T19:45:20.096Z,18.80
2022-12-08T19:47:48.106Z,18.90
2022-12-08T19:50:35.295Z,18.80
2022-12-08T19:53:05.303Z,19.00
2022-12-08T19:55:32.512Z,18.90
2022-12-08T19:58:01.837Z,18.90
2022-12-08T20:00:30.296Z,19.00
2022-12-08T20:02:58.496Z,19.10
2022-12-08T20:05:25.902Z,19.00
2022-12-08T20:07:56.224Z,18.80
2022-12-08T20:10:29.523Z,18.90
2022-12-08T20:13:15.566Z,18.80
2022-12-08T20:15:43.329Z,18.70
2022-12-08T20:18:11.782Z,18.70
2022-12-08T20:20:40.065Z,18.80
2022-12-08T20:23:07.106Z,18.90
2022-12-08T20:25:34.270Z,18.90
2022-12-08T20:28:01.157Z,19.00
2022-12-08T20:30:28.054Z,18.90
2022-12-08T20:32:54.943Z,19.00
2022-12-08T20:35:21.984Z,18.90
2022-12-08T20:37:49.091Z,18.70
2022-12-08T20:40:16.137Z,18.60
2022-12-08T20:42:43.208Z,18.60
2022-12-08T20:45:10.547Z,18.60
2022-12-08T20:47:37.970Z,18.40
2022-12-08T20:50:06.696Z,18.50
2022-12-08T20:52:34.136Z,18.50
2022-12-08T20:55:01.203Z,18.40
2022-12-08T20:57:28.352Z,18.30
2022-12-08T20:59:55.266Z,18.40
2022-12-08T21:02:22.370Z,18.70
2022-12-08T21:04:49.653Z,18.70
2022-12-08T21:07:16.668Z,18.70
2022-12-08T21:09:44.123Z,18.90
2022-12-08T21:12:11.369Z,19.00
2022-12-08T21:14:38.431Z,19.10
2022-12-08T21:17:05.694Z,19.00
2022-12-08T21:19:32.746Z,19.20
2022-12-08T21:21:59.723Z,19.50
2022-12-08T21:24:31.982Z,19.40
2022-12-08T21:27:00.867Z,19.60
2022-12-08T21:29:27.993Z,19.60
2022-12-08T21:31:57.861Z,19.60
2022-12-08T21:34:26.127Z,19.80
2022-12-08T21:36:53.277Z,19.70
2022-12-08T21:39:20.408Z,19.70
2022-12-08T21:42:05.944Z,19.80
2022-12-08T21:44:35.630Z,19.90
2022-12-08T21:47:06.003Z,19.70
2022-12-08T21:49:33.105Z,19.60
2022-12-08T21:52:00.163Z,19.80
2022-12-08T21:54:27.417Z,20.70
2022-12-08T21:56:54.724Z,21.10
2022-12-08T21:59:21.948Z,21.40
2022-12-08T22:01:49.148Z,21.90
2022-12-08T22:04:18.246Z,22.50
2022-12-08T22:06:45.594Z,22.80
2022-12-08T22:09:13.680Z,22.90
2022-12-08T22:11:41.126Z,22.00
2022-12-08T22:14:12.583Z,21.70
2022-12-08T22:16:42.224Z,21.40
2022-12-08T22:19:09.488Z,21.40
2022-12-08T22:21:38.506Z,21.00
2022-12-08T22:24:06.321Z,20.70
2022-12-08T22:26:33.968Z,20.60
2022-12-08T22:29:02.478Z,20.40
2022-12-08T22:31:29.809Z,20.50
2022-12-08T22:33:59.617Z,20.60
2022-12-08T22:36:29.066Z,20.80
2022-12-08T22:38:56.615Z,21.20
2022-12-08T22:41:23.830Z,21.70
2022-12-08T22:43:51.456Z,21.90
2022-12-08T22:46:21.189Z,22.10
2022-12-08T22:48:48.645Z,21.60
2022-12-08T22:51:15.958Z,21.10
2022-12-08T22:53:43.144Z,21.40
2022-12-08T22:56:12.152Z,20.40
2022-12-08T22:58:40.081Z,20.10
2022-12-08T23:01:08.498Z,19.90
2022-12-08T23:03:35.663Z,19.60
2022-12-08T23:06:11.647Z,19.70
2022-12-08T23:08:38.781Z,19.60
2022-12-08T23:11:06.180Z,19.40
2022-12-08T23:13:33.181Z,19.40
2022-12-08T23:16:00.249Z,19.30
2022-12-08T23:18:27.275Z,19.30
2022-12-08T23:20:54.415Z,19.30
2022-12-08T23:23:21.389Z,19.50
2022-12-08T23:25:48.594Z,19.30
2022-12-08T23:28:15.719Z,19.40
2022-12-08T23:30:42.717Z,19.40
2022-12-08T23:33:09.880Z,19.30
2022-12-08T23:35:36.862Z,19.30
2022-12-08T23:38:04.336Z,19.40
2022-12-08T23:40:31.422Z,19.50
2022-12-08T23:42:58.325Z,19.40
2022-12-08T23:45:26.585Z,19.30
2022-12-08T23:47:53.712Z,19.40
2022-12-08T23:50:20.634Z,19.30
2022-12-08T23:52:47.760Z,19.20
2022-12-08T23:55:14.702Z,19.40
2022-12-08T23:57:41.640Z,19.20
